Port Mellon, Canada
Current Conditions -  °F | °C
As of 12:00 AM on Thursday 18 Dec 2014 (Local Time) from CYVR Reporting Station
Light Rain Light Rain  
Wind Chill:   Ceiling: 2000
Heat Index:   Visibility: 12mi
Dew Point:   Wind: 5mph
Humidity: 93%   Direction: 90°E
Pressure: 29.92"   Gusts: NA
Location:  49.52°N, 123.48°W
Report Text: CYVR 180800Z 09004KT 12SM -RA FEW016 OVC020 07/06 A2992 RMK CF2SC6 SLP132
Loading
Personal Weather Stations






























Interactive Weather Map New forecast layout! Learn more

10-Day Weather Forecast

Advertisements
Track Severe Weather on mobile